createdAt,value
2018-06-28T00:00:20.432Z,74.66
2018-06-28T00:01:29.995Z,75.29
2018-06-28T00:02:39.797Z,74.76
2018-06-28T00:03:49.878Z,75.62
2018-06-28T00:04:59.952Z,75.04
2018-06-28T00:06:09.762Z,75.23
2018-06-28T00:07:19.861Z,75.04
2018-06-28T00:08:29.685Z,75.04
2018-06-28T00:09:39.771Z,75.14
2018-06-28T00:10:49.579Z,74.95
2018-06-28T00:11:59.392Z,75.04
2018-06-28T00:13:09.472Z,75.14
2018-06-28T00:14:19.556Z,75.14
2018-06-28T00:15:29.686Z,75.04
2018-06-28T00:16:39.759Z,75.33
2018-06-28T00:17:49.567Z,75.33
2018-06-28T00:18:59.641Z,75.04
2018-06-28T00:20:09.462Z,74.95
2018-06-28T00:21:19.294Z,74.95
2018-06-28T00:22:29.424Z,75.23
2018-06-28T00:23:39.493Z,75.04
2018-06-28T00:24:49.305Z,75.33
2018-06-28T00:25:59.355Z,75.23
2018-06-28T00:27:09.158Z,75.33
2018-06-28T00:28:19.255Z,74.66
2018-06-28T00:29:29.333Z,74.95
2018-06-28T00:30:39.417Z,74.95
2018-06-28T00:31:49.482Z,75.14
2018-06-28T00:32:59.271Z,75.52
2018-06-28T00:34:09.353Z,75.52
2018-06-28T00:35:18.900Z,75.14
2018-06-28T00:36:28.720Z,75.52
2018-06-28T00:37:38.813Z,75.14
2018-06-28T00:38:48.626Z,75.2
2018-06-28T00:39:58.687Z,74.95
2018-06-28T00:41:08.775Z,75.23
2018-06-28T00:42:18.584Z,75.14
2018-06-28T00:43:28.661Z,75.52
2018-06-28T00:44:38.742Z,75.33
2018-06-28T00:45:48.822Z,75.14
2018-06-28T00:46:58.925Z,75.23
2018-06-28T00:48:08.994Z,75.33
2018-06-28T00:49:19.061Z,75.23
2018-06-28T00:50:28.884Z,75.23
2018-06-28T00:51:38.978Z,75.23
2018-06-28T00:52:48.573Z,75.04
2018-06-28T00:53:58.654Z,75.14
2018-06-28T00:55:08.734Z,75.33
2018-06-28T00:56:18.877Z,75.33
2018-06-28T00:57:28.725Z,75.14
2018-06-28T00:58:38.818Z,74.95
2018-06-28T00:59:48.877Z,75.33
2018-06-28T01:00:59.015Z,75.33
2018-06-28T01:02:08.820Z,75.33
2018-06-28T01:03:18.882Z,75.23
2018-06-28T01:04:28.961Z,75.04
2018-06-28T01:05:38.764Z,75.43
2018-06-28T01:06:48.842Z,75.23
2018-06-28T01:07:58.417Z,75.65
2018-06-28T01:09:08.481Z,75.14
2018-06-28T01:10:18.299Z,75.62
2018-06-28T01:11:28.137Z,74.95
2018-06-28T01:12:37.964Z,75.62
2018-06-28T01:13:48.070Z,74.95
2018-06-28T01:14:57.876Z,75.33
2018-06-28T01:16:07.952Z,75.33
2018-06-28T01:17:18.016Z,75.33
2018-06-28T01:18:27.824Z,75.04
2018-06-28T01:19:37.639Z,74.95
2018-06-28T01:20:47.247Z,75.52
2018-06-28T01:21:57.313Z,75.62
2018-06-28T01:23:07.382Z,75.33
2018-06-28T01:24:17.460Z,75.71
2018-06-28T01:25:27.546Z,75.52
2018-06-28T01:26:37.670Z,75.43
2018-06-28T01:27:47.770Z,75.43
2018-06-28T01:28:57.605Z,75.62
2018-06-28T01:30:07.707Z,75.18
2018-06-28T01:31:17.770Z,75.71
2018-06-28T01:32:27.848Z,75.62
2018-06-28T01:33:37.658Z,75.43
2018-06-28T01:34:47.731Z,75.81
2018-06-28T01:35:57.816Z,75.33
2018-06-28T01:37:07.632Z,75.33
2018-06-28T01:38:17.707Z,75.04
2018-06-28T01:39:27.795Z,75.75
2018-06-28T01:40:37.865Z,75.81
2018-06-28T01:41:47.934Z,75.33
2018-06-28T01:42:58.061Z,75.43
2018-06-28T01:44:08.126Z,75.43
2018-06-28T01:45:18.210Z,75.52
2018-06-28T01:46:28.273Z,75.43
2018-06-28T01:47:38.344Z,75.27
2018-06-28T01:48:48.399Z,75.18
2018-06-28T01:49:58.491Z,75.27
2018-06-28T01:51:08.586Z,75.14
2018-06-28T01:52:18.657Z,75.37
2018-06-28T01:53:28.744Z,75.65
2018-06-28T01:54:38.830Z,75.56
2018-06-28T01:55:48.688Z,75.75
2018-06-28T01:56:58.506Z,75.65
2018-06-28T01:58:08.317Z,75.75
2018-06-28T01:59:18.143Z,75.85
2018-06-28T02:00:27.962Z,75.37
2018-06-28T02:01:37.775Z,75.56
2018-06-28T02:02:47.593Z,75.46
2018-06-28T02:03:57.660Z,75.46
2018-06-28T02:05:07.483Z,75.95
2018-06-28T02:06:17.311Z,75.56
2018-06-28T02:07:27.387Z,75.95
2018-06-28T02:08:37.198Z,75.75
2018-06-28T02:09:46.994Z,75.81
2018-06-28T02:10:57.046Z,75.95
2018-06-28T02:12:07.127Z,75.85
2018-06-28T02:13:17.200Z,75.85
2018-06-28T02:14:27.001Z,76.23
2018-06-28T02:15:37.082Z,75.75
2018-06-28T02:16:46.893Z,75.56
2018-06-28T02:17:56.980Z,75.95
2018-06-28T02:19:07.100Z,75.95
2018-06-28T02:20:17.164Z,75.75
2018-06-28T02:21:26.991Z,75.95
2018-06-28T02:22:37.059Z,75.75
2018-06-28T02:23:47.146Z,75.95
2018-06-28T02:24:57.007Z,76.04
2018-06-28T02:26:07.074Z,75.95
2018-06-28T02:27:17.168Z,75.56
2018-06-28T02:28:26.722Z,75.95
2018-06-28T02:29:36.809Z,75.95
2018-06-28T02:30:46.910Z,75.95
2018-06-28T02:31:57.000Z,76.04
2018-06-28T02:33:07.063Z,75.85
2018-06-28T02:34:16.885Z,75.65
2018-06-28T02:35:26.704Z,75.85
2018-06-28T02:36:36.514Z,75.65
2018-06-28T02:37:46.326Z,75.85
2018-06-28T02:38:56.433Z,76.04
2018-06-28T02:40:06.504Z,75.95
2018-06-28T02:41:16.596Z,75.85
2018-06-28T02:42:26.416Z,76.04
2018-06-28T02:43:36.508Z,75.85
2018-06-28T02:44:46.588Z,75.85
2018-06-28T02:45:56.496Z,75.65
2018-06-28T02:47:06.306Z,75.95
2018-06-28T02:48:16.391Z,76.04
2018-06-28T02:49:26.458Z,75.85
2018-06-28T02:50:36.266Z,75.46
2018-06-28T02:51:46.338Z,75.75
2018-06-28T02:52:56.148Z,75.75
2018-06-28T02:54:06.249Z,75.85
2018-06-28T02:55:16.321Z,75.85
2018-06-28T02:56:26.419Z,75.65
2018-06-28T02:57:35.700Z,75.75
2018-06-28T02:58:45.803Z,75.85
2018-06-28T02:59:55.615Z,75.75
2018-06-28T03:01:05.720Z,75.85
2018-06-28T03:02:15.262Z,75.85
2018-06-28T03:34:55.369Z,70.37
2018-06-28T03:36:05.453Z,70.31
2018-06-28T03:37:15.539Z,70.95
2018-06-28T03:38:25.616Z,71.84
2018-06-28T03:39:35.467Z,72.29
2018-06-28T03:40:45.319Z,72.58
2018-06-28T03:41:55.399Z,73.28
2018-06-28T03:43:05.211Z,73.47
2018-06-28T03:44:15.300Z,73.95
2018-06-28T03:45:25.365Z,74.15
2018-06-28T03:46:35.223Z,74.24
2018-06-28T03:47:45.293Z,74.47
2018-06-28T03:48:55.387Z,75.04
2018-06-28T03:50:05.461Z,74.95
2018-06-28T03:51:15.522Z,75.14
2018-06-28T03:52:25.393Z,75.33
2018-06-28T03:53:35.462Z,75.62
2018-06-28T03:54:45.539Z,75.43
2018-06-28T03:55:55.347Z,75.75
2018-06-28T03:57:05.411Z,75.75
2018-06-28T03:58:15.295Z,75.56
2018-06-28T03:59:25.366Z,75.65
2018-06-28T04:00:35.465Z,75.95
2018-06-28T04:01:45.546Z,75.75
2018-06-28T04:02:55.076Z,75.75
2018-06-28T04:04:04.868Z,75.65
2018-06-28T04:05:14.931Z,75.75
2018-06-28T04:06:24.746Z,75.65
2018-06-28T04:07:34.949Z,75.65
2018-06-28T04:08:44.754Z,75.75
2018-06-28T04:09:54.576Z,76.04
2018-06-28T04:11:04.639Z,75.89
2018-06-28T04:12:14.710Z,75.7
2018-06-28T04:13:24.532Z,75.7
2018-06-28T04:14:34.595Z,75.7
2018-06-28T04:15:44.670Z,75.89
2018-06-28T04:16:54.478Z,75.85
2018-06-28T04:18:04.577Z,75.7
2018-06-28T04:19:14.668Z,75.89
2018-06-28T04:20:24.750Z,75.79
2018-06-28T04:21:34.808Z,75.98
2018-06-28T04:22:44.610Z,76.17
2018-06-28T04:23:54.418Z,75.5
2018-06-28T04:25:04.491Z,75.89
2018-06-28T04:26:14.288Z,75.79
2018-06-28T04:27:24.451Z,75.5
2018-06-28T04:28:34.642Z,75.5
2018-06-28T04:29:44.710Z,75.7
2018-06-28T04:30:54.501Z,75.89
2018-06-28T04:32:04.580Z,76.27
2018-06-28T04:33:14.735Z,76.27
2018-06-28T04:34:24.971Z,76.27
2018-06-28T04:35:35.059Z,75.89
2018-06-28T04:36:45.144Z,76.07
2018-06-28T04:37:55.208Z,76.27
2018-06-28T04:39:05.310Z,75.98
2018-06-28T04:40:15.117Z,75.6
2018-06-28T04:41:25.208Z,75.6
2018-06-28T04:42:35.292Z,75.89
2018-06-28T04:43:45.376Z,75.89
2018-06-28T04:44:55.170Z,75.89
2018-06-28T04:46:04.970Z,75.5
2018-06-28T04:47:14.781Z,75.89
2018-06-28T04:48:24.584Z,75.6
2018-06-28T04:49:34.649Z,75.7
2018-06-28T04:50:44.721Z,76.27
2018-06-28T04:51:54.799Z,75.89
2018-06-28T04:53:04.079Z,75.79
2018-06-28T04:54:14.151Z,75.6
2018-06-28T04:55:23.956Z,75.79
2018-06-28T04:56:34.036Z,75.5
2018-06-28T04:57:44.126Z,75.89
2018-06-28T04:58:53.995Z,76.27
2018-06-28T05:00:03.796Z,75.98
2018-06-28T05:01:13.929Z,75.89
2018-06-28T05:02:24.236Z,75.6
2018-06-28T05:03:34.315Z,75.7
2018-06-28T05:04:44.380Z,75.79
2018-06-28T05:05:54.439Z,75.89
2018-06-28T05:07:04.622Z,75.79
2018-06-28T05:08:15.031Z,75.98
2018-06-28T05:09:25.119Z,75.7
2018-06-28T05:10:34.937Z,75.79
2018-06-28T05:11:45.026Z,75.89
2018-06-28T05:12:54.830Z,75.6
2018-06-28T05:14:04.655Z,75.79
2018-06-28T05:15:14.734Z,75.6
2018-06-28T05:16:24.808Z,75.79
2018-06-28T05:17:34.896Z,75.79
2018-06-28T05:18:44.977Z,75.7
2018-06-28T05:19:55.064Z,75.98
2018-06-28T05:21:05.136Z,75.89
2018-06-28T05:22:15.307Z,76.07
2018-06-28T05:23:25.213Z,75.5
2018-06-28T05:24:35.467Z,75.79
2018-06-28T05:25:45.536Z,75.6
2018-06-28T05:26:55.602Z,75.6
2018-06-28T05:28:05.671Z,75.89
2018-06-28T05:29:15.284Z,75.7
2018-06-28T05:30:25.360Z,75.7
2018-06-28T05:31:35.420Z,75.6
2018-06-28T05:32:45.553Z,75.6
2018-06-28T05:33:55.634Z,75.5
2018-06-28T05:35:05.716Z,75.73
2018-06-28T05:36:15.781Z,75.63
2018-06-28T05:37:25.911Z,75.73
2018-06-28T05:38:35.740Z,75.63
2018-06-28T05:39:45.818Z,75.92
2018-06-28T05:40:55.882Z,75.79
2018-06-28T05:42:05.743Z,75.4
2018-06-28T05:43:15.816Z,75.7
2018-06-28T05:44:25.892Z,75.7
2018-06-28T05:45:35.707Z,75.6
2018-06-28T05:46:45.781Z,75.7
2018-06-28T05:47:55.841Z,75.5
2018-06-28T05:49:06.069Z,75.92
2018-06-28T05:50:15.887Z,75.98
2018-06-28T05:51:25.708Z,75.98
2018-06-28T05:52:35.797Z,75.89
2018-06-28T05:53:45.870Z,75.89
2018-06-28T05:54:55.951Z,75.89
2018-06-28T05:56:06.031Z,75.79
2018-06-28T05:57:15.845Z,75.82
2018-06-28T05:58:25.915Z,75.79
2018-06-28T05:59:36.042Z,75.89
2018-06-28T06:00:46.124Z,75.7
2018-06-28T06:01:56.192Z,76.27
2018-06-28T06:03:06.258Z,75.89
2018-06-28T06:04:16.327Z,75.6
2018-06-28T06:05:26.185Z,75.79
2018-06-28T06:06:36.258Z,75.63
2018-06-28T06:07:46.344Z,75.82
2018-06-28T06:08:56.157Z,75.92
2018-06-28T06:10:06.224Z,75.82
2018-06-28T06:11:16.101Z,76.02
2018-06-28T06:12:26.172Z,75.63
2018-06-28T06:13:36.239Z,75.54
2018-06-28T06:14:46.343Z,75.63
2018-06-28T06:15:56.426Z,75.54
2018-06-28T06:17:06.574Z,76.12
2018-06-28T06:18:16.645Z,75.82
2018-06-28T06:19:26.449Z,76.02
2018-06-28T06:20:36.258Z,75.82
2018-06-28T06:21:46.339Z,75.73
2018-06-28T06:22:56.523Z,75.77
2018-06-28T06:24:06.608Z,75.57
2018-06-28T06:25:16.412Z,75.57
2018-06-28T06:26:26.493Z,75.87
2018-06-28T06:27:36.572Z,75.67
2018-06-28T06:28:46.654Z,76.15
2018-06-28T06:29:56.737Z,75.87
2018-06-28T06:31:06.559Z,76.06
2018-06-28T06:32:16.636Z,76.15
2018-06-28T06:33:26.775Z,75.57
2018-06-28T06:34:36.844Z,75.87
2018-06-28T06:35:46.654Z,75.77
2018-06-28T06:36:56.469Z,76.06
2018-06-28T06:38:06.595Z,75.67
2018-06-28T06:39:16.152Z,75.96
2018-06-28T06:40:26.262Z,75.67
2018-06-28T06:41:36.077Z,75.87
2018-06-28T06:42:46.142Z,75.96
2018-06-28T06:43:56.259Z,75.77
2018-06-28T06:45:06.333Z,75.67
2018-06-28T06:46:16.221Z,75.96
2018-06-28T06:47:26.038Z,75.67
2018-06-28T06:48:36.105Z,75.96
2018-06-28T06:49:46.263Z,75.77
2018-06-28T06:50:56.329Z,76.19
2018-06-28T06:52:06.409Z,75.9
2018-06-28T06:53:16.481Z,76.09
2018-06-28T06:54:26.292Z,76.09
2018-06-28T06:55:36.253Z,76
2018-06-28T06:56:46.062Z,75.9
2018-06-28T06:57:56.127Z,75.65
2018-06-28T06:59:05.935Z,75.37
2018-06-28T07:00:16.028Z,75.37
2018-06-28T07:01:26.277Z,75.27
2018-06-28T07:02:36.092Z,75.46
2018-06-28T07:03:46.227Z,75.65
2018-06-28T07:04:56.316Z,75.65
2018-06-28T07:06:06.405Z,76.04
2018-06-28T07:07:16.215Z,76.14
2018-06-28T07:08:26.034Z,76.32
2018-06-28T07:09:35.869Z,76.14
2018-06-28T07:10:45.971Z,76.04
2018-06-28T07:11:55.784Z,76.23
2018-06-28T07:13:05.862Z,75.75
2018-06-28T07:14:15.680Z,75.75
2018-06-28T07:15:25.802Z,75.94
2018-06-28T07:16:35.892Z,75.84
2018-06-28T07:17:45.954Z,75.59
2018-06-28T07:18:56.219Z,75.59
2018-06-28T07:20:06.278Z,75.69
2018-06-28T07:21:16.367Z,75.59
2018-06-28T07:22:26.452Z,75.59
2018-06-28T07:23:36.525Z,74.63
2018-06-28T07:24:46.598Z,74.38
2018-06-28T07:25:56.419Z,74.67
2018-06-28T07:27:06.286Z,74.71
2018-06-28T07:28:16.351Z,74.71
2018-06-28T07:29:25.952Z,74.61
2018-06-28T07:30:36.059Z,74.41
2018-06-28T07:31:46.144Z,73.88
2018-06-28T07:32:56.464Z,73.68
2018-06-28T07:34:06.736Z,74.36
2018-06-28T07:35:17.551Z,74.65
2018-06-28T07:36:27.633Z,74.45
2018-06-28T07:37:37.464Z,74.45
2018-06-28T07:38:47.359Z,74.93
2018-06-28T07:39:57.158Z,74.55
2018-06-28T07:41:07.229Z,74.71
2018-06-28T07:42:17.310Z,74.9
2018-06-28T07:43:27.430Z,74.99
2018-06-28T07:44:38.310Z,74.55
2018-06-28T07:45:48.380Z,74.93
2018-06-28T07:46:58.586Z,75.03
2018-06-28T07:48:08.767Z,74.93
2018-06-28T07:49:18.841Z,74.49
2018-06-28T07:50:28.931Z,74.01
2018-06-28T07:51:38.489Z,74.01
2018-06-28T07:52:48.555Z,73.27
2018-06-28T07:53:58.618Z,73.85
2018-06-28T07:55:08.695Z,73.89
2018-06-28T07:56:18.782Z,73.89
2018-06-28T07:57:28.862Z,73.69
2018-06-28T07:58:38.680Z,73.31
2018-06-28T07:59:48.757Z,73.31
2018-06-28T08:00:58.835Z,73.41
2018-06-28T08:02:08.662Z,73.69
2018-06-28T08:03:18.747Z,73.63
2018-06-28T08:04:28.921Z,73.44
2018-06-28T08:05:38.748Z,73.93
2018-06-28T08:06:48.571Z,74.02
2018-06-28T08:07:58.632Z,74.02
2018-06-28T08:09:08.725Z,74.12
2018-06-28T08:10:18.831Z,74.12
2018-06-28T08:11:28.907Z,73.93
2018-06-28T08:12:38.998Z,73.93
2018-06-28T08:13:49.093Z,73.93
2018-06-28T08:14:58.919Z,74.12
2018-06-28T08:16:09.010Z,73.93
2018-06-28T08:17:19.134Z,73.73
2018-06-28T08:18:28.945Z,73.83
2018-06-28T08:19:38.494Z,74.41
2018-06-28T08:20:48.661Z,74.41
2018-06-28T08:21:58.762Z,74.6
2018-06-28T08:23:08.883Z,74.31
2018-06-28T08:24:19.039Z,73.93
2018-06-28T08:25:29.122Z,74.12
2018-06-28T08:26:39.240Z,73.93
2018-06-28T08:27:49.336Z,73.48
2018-06-28T08:28:59.164Z,73.77
2018-06-28T08:30:09.261Z,73.96
2018-06-28T08:31:19.086Z,73.96
2018-06-28T08:32:29.225Z,73.67
2018-06-28T08:33:39.323Z,73.77
2018-06-28T08:34:49.141Z,73.86
2018-06-28T08:35:59.527Z,74.1
2018-06-28T08:37:09.800Z,73.42
2018-06-28T08:38:19.951Z,73.03
2018-06-28T08:39:30.044Z,73.07
2018-06-28T08:40:40.158Z,73.16
2018-06-28T08:41:50.255Z,73.65
2018-06-28T08:43:00.349Z,73.65
2018-06-28T08:44:10.452Z,73.94
2018-06-28T08:45:20.568Z,73.55
2018-06-28T08:46:30.668Z,74.13
2018-06-28T08:47:40.501Z,73.74
2018-06-28T08:48:50.596Z,73.55
2018-06-28T08:50:00.864Z,73.55
2018-06-28T08:51:10.935Z,73.32
2018-06-28T08:52:21.021Z,74.32
2018-06-28T08:53:31.109Z,73.84
2018-06-28T08:54:40.947Z,74.42
2018-06-28T08:55:51.015Z,74.04
2018-06-28T08:57:01.116Z,74.42
2018-06-28T08:58:11.247Z,74.04
2018-06-28T08:59:21.560Z,74
2018-06-28T09:00:31.658Z,74.58
2018-06-28T09:01:41.793Z,74.38
2018-06-28T09:02:51.668Z,74.29
2018-06-28T09:04:01.890Z,74.87
2018-06-28T09:05:11.734Z,74
2018-06-28T09:06:21.852Z,73.9
2018-06-28T09:07:31.424Z,74.1
2018-06-28T09:08:41.520Z,73.65
2018-06-28T09:09:51.097Z,73.46
2018-06-28T09:11:01.210Z,73.55
2018-06-28T09:12:11.294Z,73.94
2018-06-28T09:13:21.134Z,73.65
2018-06-28T09:14:31.202Z,73.65
2018-06-28T09:15:41.287Z,74.04
2018-06-28T09:16:51.389Z,73.49
2018-06-28T09:18:01.503Z,73.68
2018-06-28T09:19:11.654Z,73.59
2018-06-28T09:20:21.743Z,73.63
2018-06-28T09:21:31.585Z,73.82
2018-06-28T09:22:41.800Z,73.63
2018-06-28T09:23:52.419Z,73.53
2018-06-28T09:25:02.549Z,73.43
2018-06-28T09:26:12.634Z,73.43
2018-06-28T09:27:23.099Z,72.79
2018-06-28T09:28:34.671Z,73.08
2018-06-28T09:29:44.769Z,73.18
2018-06-28T09:30:54.388Z,72.44
2018-06-28T09:32:04.226Z,71.89
2018-06-28T09:33:14.314Z,72.09
2018-06-28T09:34:24.138Z,71.7
2018-06-28T09:35:33.954Z,71.34
2018-06-28T09:36:43.838Z,70.8
2018-06-28T09:37:54.306Z,71.09
2018-06-28T09:39:04.227Z,71.22
2018-06-28T09:40:14.863Z,71.28
2018-06-28T09:41:24.447Z,71.42
2018-06-28T09:42:34.306Z,71.12
2018-06-28T09:43:44.187Z,71.42
2018-06-28T09:44:54.278Z,71.9
2018-06-28T09:46:04.101Z,72.45
2018-06-28T09:47:14.198Z,72.64
2018-06-28T09:48:24.097Z,73.28
2018-06-28T09:49:34.218Z,73.77
2018-06-28T09:50:44.048Z,74.32
2018-06-28T09:51:54.140Z,73.89
2018-06-28T09:53:04.249Z,74.08
2018-06-28T09:54:14.123Z,73.6
2018-06-28T09:55:23.948Z,73.83
2018-06-28T09:56:34.045Z,73.6
2018-06-28T09:57:44.155Z,73.35
2018-06-28T09:58:54.714Z,72.31
2018-06-28T10:00:04.785Z,72.16
2018-06-28T10:01:14.970Z,72.16
2018-06-28T10:02:25.071Z,72
2018-06-28T10:03:35.178Z,71.32
2018-06-28T10:04:45.279Z,70.77
2018-06-28T10:05:55.423Z,70.81
2018-06-28T10:07:05.514Z,70.45
2018-06-28T10:08:15.620Z,70.45
2018-06-28T10:09:25.729Z,70.29
2018-06-28T10:10:35.842Z,70.49
2018-06-28T10:11:45.931Z,70.04
2018-06-28T10:12:55.787Z,70.42
2018-06-28T10:14:05.643Z,70.13
2018-06-28T10:15:15.737Z,70.32
2018-06-28T10:16:25.625Z,70.36
2018-06-28T10:17:35.733Z,69.68
2018-06-28T10:18:45.583Z,69.23
2018-06-28T10:19:55.695Z,69.07
2018-06-28T10:21:05.797Z,68.23
2018-06-28T10:22:15.905Z,68.45
2018-06-28T10:23:26.004Z,68.49
2018-06-28T10:24:36.158Z,68.68
2018-06-28T10:25:46.533Z,68.77
2018-06-28T10:26:56.639Z,68.49
2018-06-28T10:28:06.741Z,68.36
2018-06-28T10:29:16.551Z,68.49
2018-06-28T10:30:26.665Z,68
2018-06-28T10:31:36.774Z,68.13
2018-06-28T10:32:47.016Z,67.97
2018-06-28T10:33:57.373Z,68.46
2018-06-28T10:35:07.473Z,69.04
2018-06-28T10:36:17.804Z,68.82
2018-06-28T10:37:27.899Z,68.98
2018-06-28T10:38:37.732Z,69.76
2018-06-28T10:39:47.830Z,69.53
2018-06-28T10:40:57.813Z,69.56
2018-06-28T10:42:08.126Z,70.02
2018-06-28T10:43:17.683Z,69.53
2018-06-28T10:44:27.815Z,70.41
2018-06-28T10:45:37.655Z,70.86
2018-06-28T10:46:47.832Z,71.02
2018-06-28T10:47:57.933Z,70.73
2018-06-28T10:49:08.116Z,70.73
2018-06-28T10:50:18.246Z,71.02
2018-06-28T10:51:28.470Z,70.14
2018-06-28T10:52:38.562Z,70.73
2018-06-28T10:53:48.390Z,69.49
2018-06-28T10:54:58.559Z,69.63
2018-06-28T10:56:08.397Z,69.43
2018-06-28T10:57:18.531Z,69.04
2018-06-28T10:58:28.621Z,69.07
2018-06-28T10:59:38.721Z,68.68
2018-06-28T11:00:48.817Z,69.66
2018-06-28T11:01:58.901Z,69.27
2018-06-28T11:03:08.989Z,69.17
2018-06-28T11:04:18.822Z,69.21
2018-06-28T11:05:28.913Z,68.62
2018-06-28T11:06:38.746Z,68.85
2018-06-28T11:07:48.565Z,68.65
2018-06-28T11:08:58.655Z,68.88
2018-06-28T11:10:08.739Z,68.78
2018-06-28T11:11:18.846Z,69.24
2018-06-28T11:12:29.014Z,69.34
2018-06-28T11:13:39.564Z,70.02
2018-06-28T11:14:49.147Z,69.79
2018-06-28T11:15:59.272Z,69.99
2018-06-28T11:17:09.395Z,69.79
2018-06-28T11:18:19.229Z,69.79
2018-06-28T11:19:29.384Z,70.09
2018-06-28T11:20:39.537Z,70.18
2018-06-28T11:21:49.379Z,69.95
2018-06-28T11:22:59.472Z,70.15
2018-06-28T11:24:09.570Z,69.7
2018-06-28T11:25:19.682Z,69.01
2018-06-28T11:26:29.798Z,69.14
2018-06-28T11:27:40.133Z,69.18
2018-06-28T11:28:49.951Z,69.18
2018-06-28T11:29:59.782Z,69.47
2018-06-28T11:31:09.613Z,69.92
2018-06-28T11:32:19.750Z,69.73
2018-06-28T11:33:29.303Z,70.12
2018-06-28T11:34:39.426Z,69.82
2018-06-28T11:35:49.539Z,70.31
2018-06-28T11:36:59.379Z,70.67
2018-06-28T11:38:09.528Z,70.48
2018-06-28T11:39:19.628Z,70.67
2018-06-28T11:40:29.718Z,70.87
2018-06-28T11:41:40.100Z,70.57
2018-06-28T11:42:50.210Z,69.89
2018-06-28T11:44:00.351Z,70.21
2018-06-28T11:45:10.440Z,69.92
2018-06-28T11:46:20.267Z,69.67
2018-06-28T11:47:30.361Z,69.57
2018-06-28T11:48:40.444Z,69.76
2018-06-28T11:49:50.577Z,69.76
2018-06-28T11:51:00.894Z,70.06
2018-06-28T11:52:11.138Z,70.31
2018-06-28T11:53:21.440Z,70.38
2018-06-28T11:54:31.520Z,70.38
2018-06-28T11:55:41.721Z,70.48
2018-06-28T11:56:51.897Z,70.48
2018-06-28T11:58:01.998Z,70.87
2018-06-28T11:59:12.112Z,70.18
2018-06-28T12:00:21.949Z,69.82
2018-06-28T12:01:32.124Z,70.15
2018-06-28T12:02:41.958Z,70.35
2018-06-28T12:03:52.042Z,70.06
2018-06-28T12:05:02.130Z,69.96
2018-06-28T12:06:11.971Z,69.96
2018-06-28T12:07:22.077Z,69.67
2018-06-28T12:08:31.889Z,70.15
2018-06-28T12:09:41.979Z,70.45
2018-06-28T12:10:52.079Z,70.7
2018-06-28T12:12:02.175Z,70.9
2018-06-28T12:13:12.270Z,70.7
2018-06-28T12:14:22.084Z,70.48
2018-06-28T12:15:32.183Z,70.51
2018-06-28T12:16:42.029Z,70.57
2018-06-28T12:17:52.119Z,70.87
2018-06-28T12:19:02.230Z,71.16
2018-06-28T12:20:12.316Z,71.36
2018-06-28T12:21:22.138Z,71.06
2018-06-28T12:22:32.377Z,70.87
2018-06-28T12:23:42.477Z,71.26
2018-06-28T12:24:52.294Z,71.32
2018-06-28T12:26:02.409Z,71.12
2018-06-28T12:27:12.231Z,72
2018-06-28T12:28:21.801Z,72.07
2018-06-28T12:29:31.899Z,71.58
2018-06-28T12:30:42.019Z,72.23
2018-06-28T12:31:52.128Z,72.33
2018-06-28T12:33:02.224Z,72.49
2018-06-28T12:34:12.325Z,72.58
2018-06-28T12:35:21.878Z,71.7
2018-06-28T12:36:31.705Z,72.03
2018-06-28T12:37:41.791Z,71.06
2018-06-28T12:38:51.627Z,71.39
2018-06-28T12:40:01.717Z,71.19
2018-06-28T12:41:11.580Z,71.29
2018-06-28T12:42:21.658Z,71.19
2018-06-28T12:43:31.752Z,71.09
2018-06-28T12:44:41.325Z,71.19
2018-06-28T12:45:51.407Z,71.09
2018-06-28T12:47:01.241Z,71.03
2018-06-28T12:48:11.346Z,70.44
2018-06-28T12:49:21.439Z,70.54
2018-06-28T12:50:31.008Z,70.87
2018-06-28T12:51:40.835Z,70.57
2018-06-28T12:52:50.953Z,70.67
2018-06-28T12:54:01.054Z,70.67
2018-06-28T12:55:11.239Z,70.57
2018-06-28T12:56:21.351Z,70.7
2018-06-28T12:57:31.448Z,70.57
2018-06-28T12:58:41.531Z,70.97
2018-06-28T12:59:51.667Z,71.26
2018-06-28T13:01:02.263Z,71.42
2018-06-28T13:02:12.392Z,71.12
2018-06-28T13:03:22.501Z,71.61
2018-06-28T13:04:32.060Z,71.88
2018-06-28T13:05:42.153Z,72.17
2018-06-28T13:06:52.255Z,71.88
2018-06-28T13:08:02.321Z,72.66
2018-06-28T13:09:12.170Z,72.81
2018-06-28T13:10:22.506Z,72.97
2018-06-28T13:11:32.329Z,73.03
2018-06-28T13:12:42.296Z,73.33
2018-06-28T13:13:52.577Z,73.49
2018-06-28T13:15:02.432Z,73.29
2018-06-28T13:16:12.253Z,73.94
2018-06-28T13:17:22.101Z,73.65
2018-06-28T13:18:32.201Z,74.29
2018-06-28T13:19:42.416Z,74.29
2018-06-28T13:20:52.251Z,74.19
2018-06-28T13:22:02.378Z,73.86
2018-06-28T13:23:12.473Z,72.92
2018-06-28T13:24:22.555Z,73.06
2018-06-28T13:25:32.675Z,73.55
2018-06-28T13:26:42.762Z,72.86
2018-06-28T13:27:52.855Z,72.38
2018-06-28T13:29:02.948Z,72.47
2018-06-28T13:30:13.049Z,72.86
2018-06-28T13:31:23.162Z,72.57
2018-06-28T13:32:33.270Z,72.67
2018-06-28T13:33:42.871Z,72.51
2018-06-28T13:34:53.063Z,72.06
2018-06-28T13:36:03.147Z,71.31
2018-06-28T13:37:13.242Z,71.41
2018-06-28T13:38:23.324Z,71.35
2018-06-28T13:39:33.631Z,71.15
2018-06-28T13:40:43.936Z,71.06
2018-06-28T13:41:54.544Z,71.19
2018-06-28T13:43:05.029Z,70.86
2018-06-28T13:44:15.121Z,71.19
2018-06-28T13:45:25.226Z,71.09
2018-06-28T13:46:35.046Z,71.09
2018-06-28T13:47:44.876Z,71.68
2018-06-28T13:48:54.976Z,71.84
2018-06-28T13:50:04.832Z,71.94
2018-06-28T13:51:14.699Z,72.13
2018-06-28T13:52:24.800Z,71.64
2018-06-28T13:53:34.896Z,72.52
2018-06-28T13:54:44.983Z,72.62
2018-06-28T13:55:55.072Z,72.39
2018-06-28T13:57:04.946Z,72.39
2018-06-28T13:58:15.052Z,72.58
2018-06-28T13:59:25.177Z,72.29
2018-06-28T14:00:35.252Z,72.68
2018-06-28T14:01:45.345Z,73.03
2018-06-28T14:02:55.480Z,73.23
2018-06-28T14:04:05.816Z,72.9
2018-06-28T14:05:15.898Z,72.55
2018-06-28T14:06:25.719Z,72.39
2018-06-28T14:07:35.544Z,72.39
2018-06-28T14:08:45.688Z,72.58
2018-06-28T14:09:55.790Z,72.39
2018-06-28T14:11:05.869Z,72.49
2018-06-28T14:12:15.988Z,72.09
2018-06-28T14:13:25.797Z,72.29
2018-06-28T14:14:35.924Z,72.39
2018-06-28T14:15:46.037Z,72.49
2018-06-28T14:16:56.139Z,72.58
2018-06-28T14:18:06.249Z,72.39
2018-06-28T14:19:15.822Z,72.49
2018-06-28T14:20:26.037Z,72.29
2018-06-28T14:21:36.447Z,72
2018-06-28T14:22:46.543Z,71.9
2018-06-28T14:23:56.386Z,71.15
2018-06-28T14:25:06.496Z,70.8
2018-06-28T14:26:16.593Z,71
2018-06-28T14:27:26.701Z,71.48
2018-06-28T14:28:36.822Z,71.29
2018-06-28T14:29:46.920Z,71.68
2018-06-28T14:30:56.997Z,71.94
2018-06-28T14:32:07.099Z,71.84
2018-06-28T14:33:16.936Z,71.94
2018-06-28T14:34:27.039Z,72.62
2018-06-28T14:35:37.120Z,72.62
2018-06-28T14:36:47.211Z,72.33
2018-06-28T14:37:57.052Z,72.58
2018-06-28T14:39:06.890Z,72.39
2018-06-28T14:40:16.972Z,71.84
2018-06-28T14:41:27.100Z,71.78
2018-06-28T14:42:37.290Z,71.19
2018-06-28T14:43:47.397Z,70.83
2018-06-28T14:44:57.583Z,70.57
2018-06-28T14:46:08.124Z,70.12
2018-06-28T14:47:18.016Z,70.06
2018-06-28T14:48:28.480Z,69.96
2018-06-28T14:49:38.626Z,70.48
2018-06-28T14:50:48.718Z,70.84
2018-06-28T14:51:58.821Z,71.59
2018-06-28T14:53:09.011Z,71.36
2018-06-28T14:54:19.446Z,71.94
2018-06-28T14:55:29.595Z,73.08
2018-06-28T14:56:39.698Z,73.24
2018-06-28T14:57:49.796Z,73.89
2018-06-28T14:58:59.621Z,74.15
2018-06-28T15:00:09.726Z,73.97
2018-06-28T15:01:19.829Z,74.62
2018-06-28T15:02:29.936Z,74.39
2018-06-28T15:03:39.775Z,75.26
2018-06-28T15:04:49.859Z,75.32
2018-06-28T15:05:59.749Z,75.42
2018-06-28T15:07:09.902Z,75.09
2018-06-28T15:08:19.996Z,74.99
2018-06-28T15:09:29.640Z,74.96
2018-06-28T15:10:39.548Z,74.96
2018-06-28T15:11:49.381Z,74.96
2018-06-28T15:12:59.495Z,75.15
2018-06-28T15:14:09.599Z,74.48
2018-06-28T15:15:19.742Z,74.48
2018-06-28T15:16:30.071Z,74.44
2018-06-28T15:17:39.907Z,74.44
2018-06-28T15:18:49.739Z,74.24
2018-06-28T15:19:59.826Z,74.34
2018-06-28T15:21:09.662Z,74.34
2018-06-28T15:22:19.810Z,74.44
2018-06-28T15:23:29.912Z,74.69
2018-06-28T15:24:40.051Z,74.4
2018-06-28T15:25:50.138Z,74.4
2018-06-28T15:27:00.239Z,74.5
2018-06-28T15:28:10.076Z,74.65
2018-06-28T15:29:20.178Z,74.27
2018-06-28T15:30:30.365Z,74.07
2018-06-28T15:31:40.480Z,74.07
2018-06-28T15:32:50.592Z,74.46
2018-06-28T15:34:00.495Z,74.37
2018-06-28T15:35:10.597Z,74.81
2018-06-28T15:36:20.709Z,75.49